Time;durP1;ratioP1;P1;durP2;ratioP2;P2;SDS_P1;SDS_P2;PMS_P1;PMS_P2;Temp;Humidity;BMP_temperature;BMP_pressure;BME280_temperature;BME280_humidity;BME280_pressure;Samples;Min_cycle;Max_cycle;Signal;HPM_P1;HPM_P2
2021/08/27 00:00:53;;;;;;;9.82;5.85;;;;;;;;;;5035290;28;20056;-61
2021/08/27 00:03:19;;;;;;;10.75;6.38;;;;;;;;;;5035105;28;20032;-61
2021/08/27 00:05:45;;;;;;;10.38;5.50;;;;;;;;;;5034494;28;20029;-61
2021/08/27 00:08:11;;;;;;;11.73;6.07;;;;;;;;;;5033253;28;20033;-61
2021/08/27 00:10:37;;;;;;;11.65;5.70;;;;;;;;;;5035106;28;20556;-61
2021/08/27 00:13:03;;;;;;;11.48;5.97;;;;;;;;;;5035115;28;20017;-61
2021/08/27 00:15:29;;;;;;;11.30;5.95;;;;;;;;;;5035338;28;20028;-61
2021/08/27 00:17:55;;;;;;;12.77;5.68;;;;;;;;;;5020367;28;20401;-61
2021/08/27 00:20:21;;;;;;;14.73;5.78;;;;;;;;;;5036238;28;20041;-61
2021/08/27 00:22:47;;;;;;;9.30;5.85;;;;;;;;;;5034818;28;20603;-60
2021/08/27 00:25:13;;;;;;;8.93;5.80;;;;;;;;;;5034085;28;20223;-61
2021/08/27 00:27:39;;;;;;;9.80;5.95;;;;;;;;;;5029330;28;20029;-61
2021/08/27 00:30:05;;;;;;;9.32;6.10;;;;;;;;;;5034375;28;20072;-61
2021/08/27 00:32:32;;;;;;;12.15;5.85;;;;;;;;;;5034015;28;20040;-61
2021/08/27 00:34:58;;;;;;;8.70;5.72;;;;;;;;;;5035839;28;20469;-61
2021/08/27 00:37:24;;;;;;;10.10;6.15;;;;;;;;;;5032862;28;20389;-61
2021/08/27 00:39:49;;;;;;;11.32;6.85;;;;;;;;;;5034433;28;20025;-61
2021/08/27 00:42:15;;;;;;;12.27;6.85;;;;;;;;;;5035475;28;20026;-60
2021/08/27 00:44:41;;;;;;;11.60;6.43;;;;;;;;;;5034153;28;20109;-61
2021/08/27 00:47:07;;;;;;;11.52;6.00;;;;;;;;;;5027310;28;20026;-61
2021/08/27 00:49:33;;;;;;;12.05;5.88;;;;;;;;;;5030600;28;20477;-62
2021/08/27 00:51:59;;;;;;;15.30;6.28;;;;;;;;;;5034273;28;20079;-62
2021/08/27 00:54:26;;;;;;;9.57;5.88;;;;;;;;;;5035361;28;20404;-61
2021/08/27 00:56:52;;;;;;;9.65;6.32;;;;;;;;;;5026831;28;20022;-61
2021/08/27 00:59:18;;;;;;;11.85;5.80;;;;;;;;;;5034497;28;20032;-61
2021/08/27 01:01:44;;;;;;;10.60;6.60;;;;;;;;;;5034305;28;20029;-61
2021/08/27 01:04:11;;;;;;;10.02;6.10;;;;;;;;;;5034125;28;20030;-61
2021/08/27 01:06:43;;;;;;;11.27;6.85;;;;;;;;;;5032602;28;20591;-61
2021/08/27 01:09:13;;;;;;;10.98;6.75;;;;;;;;;;5033772;28;20051;-61
2021/08/27 01:11:46;;;;;;;15.88;7.15;;;;;;;;;;5033452;28;20420;-61
2021/08/27 01:14:20;;;;;;;11.95;7.03;;;;;;;;;;5035379;28;20079;-61
2021/08/27 01:16:49;;;;;;;13.05;6.88;;;;;;;;;;5028206;28;20611;-61
2021/08/27 01:19:34;;;;;;;13.85;6.82;;;;;;;;;;5026336;28;20025;-61
2021/08/27 01:22:18;;;;;;;13.32;7.13;;;;;;;;;;5032878;28;20026;-61
2021/08/27 01:24:46;;;;;;;14.40;6.68;;;;;;;;;;5035433;28;20025;-61
2021/08/27 01:27:13;;;;;;;9.45;6.35;;;;;;;;;;5027881;28;20052;-61
2021/08/27 01:29:45;;;;;;;13.98;6.75;;;;;;;;;;5033093;28;20029;-61
2021/08/27 01:32:16;;;;;;;14.65;6.25;;;;;;;;;;5033711;28;20049;-60
2021/08/27 01:34:43;;;;;;;10.70;6.65;;;;;;;;;;5034819;28;20033;-61
2021/08/27 01:37:12;;;;;;;10.73;6.40;;;;;;;;;;5031493;28;20022;-60
2021/08/27 01:39:39;;;;;;;11.93;6.28;;;;;;;;;;5035013;28;20108;-60
2021/08/27 01:42:07;;;;;;;13.80;6.63;;;;;;;;;;5033072;28;20440;-60
2021/08/27 01:44:33;;;;;;;12.25;6.28;;;;;;;;;;5034128;28;20033;-60
2021/08/27 01:47:00;;;;;;;9.90;5.72;;;;;;;;;;5033300;28;20041;-60
2021/08/27 01:49:30;;;;;;;12.02;6.50;;;;;;;;;;5033480;28;20025;-60
2021/08/27 01:51:58;;;;;;;9.25;6.05;;;;;;;;;;5033363;28;20049;-60
2021/08/27 01:54:24;;;;;;;11.23;6.43;;;;;;;;;;5032993;28;20056;-60
2021/08/27 01:56:51;;;;;;;12.25;5.63;;;;;;;;;;5026743;28;20026;-60
2021/08/27 01:59:17;;;;;;;9.52;6.13;;;;;;;;;;5034684;28;20116;-60
2021/08/27 02:01:44;;;;;;;10.38;6.18;;;;;;;;;;5035420;28;20476;-60
2021/08/27 02:04:11;;;;;;;11.05;6.40;;;;;;;;;;5034448;28;20029;-60
2021/08/27 02:06:37;;;;;;;12.27;6.10;;;;;;;;;;5030988;28;20029;-60
2021/08/27 02:09:04;;;;;;;11.57;6.68;;;;;;;;;;5031479;28;20064;-60
2021/08/27 02:11:31;;;;;;;9.90;5.80;;;;;;;;;;5034002;28;20026;-60
2021/08/27 02:13:58;;;;;;;10.50;5.88;;;;;;;;;;5032840;28;20052;-60
2021/08/27 02:16:24;;;;;;;8.65;5.85;;;;;;;;;;5030768;28;20017;-60
2021/08/27 02:18:50;;;;;;;11.35;6.57;;;;;;;;;;5021952;28;20143;-60
2021/08/27 02:21:17;;;;;;;9.82;5.78;;;;;;;;;;5033001;28;20526;-61
2021/08/27 02:23:45;;;;;;;9.55;5.70;;;;;;;;;;5031722;28;20028;-60
2021/08/27 02:26:12;;;;;;;10.43;6.07;;;;;;;;;;5031839;28;20065;-60
2021/08/27 02:28:39;;;;;;;11.70;5.63;;;;;;;;;;5027854;28;20032;-60
2021/08/27 02:31:05;;;;;;;9.73;5.20;;;;;;;;;;5032639;28;20029;-60
2021/08/27 02:33:32;;;;;;;11.00;5.53;;;;;;;;;;5032709;28;20041;-60
2021/08/27 02:35:59;;;;;;;11.52;5.60;;;;;;;;;;5032102;28;20036;-60
2021/08/27 02:38:26;;;;;;;11.00;5.45;;;;;;;;;;5029995;28;20425;-60
2021/08/27 02:40:52;;;;;;;10.20;5.53;;;;;;;;;;5032536;28;20030;-60
2021/08/27 02:43:18;;;;;;;13.35;6.22;;;;;;;;;;5031480;28;20040;-60
2021/08/27 02:45:44;;;;;;;14.23;6.47;;;;;;;;;;5032844;28;20029;-60
2021/08/27 02:48:10;;;;;;;15.32;5.95;;;;;;;;;;5017083;28;20477;-61
2021/08/27 02:50:45;;;;;;;9.30;5.38;;;;;;;;;;5031333;28;20029;-60
2021/08/27 02:53:19;;;;;;;11.30;5.63;;;;;;;;;;5033873;28;20042;-60
2021/08/27 02:55:47;;;;;;;11.57;5.65;;;;;;;;;;5033509;28;20029;-60
2021/08/27 02:58:33;;;;;;;10.65;5.30;;;;;;;;;;5029160;28;20109;-60
2021/08/27 03:01:05;;;;;;;11.63;5.57;;;;;;;;;;5032460;28;20029;-60
2021/08/27 03:03:32;;;;;;;9.70;4.97;;;;;;;;;;5036139;28;20573;-60
2021/08/27 03:06:04;;;;;;;12.13;5.60;;;;;;;;;;5035440;28;20072;-60
2021/08/27 03:08:31;;;;;;;10.98;5.57;;;;;;;;;;5033913;28;20030;-60
2021/08/27 03:10:56;;;;;;;8.95;5.22;;;;;;;;;;5037690;28;20388;-60
2021/08/27 03:13:34;;;;;;;12.52;5.55;;;;;;;;;;5035912;28;20048;-60
2021/08/27 03:16:02;;;;;;;10.43;4.88;;;;;;;;;;5042655;28;20025;-60
2021/08/27 03:18:31;;;;;;;7.70;4.40;;;;;;;;;;5035604;28;20087;-60
2021/08/27 03:21:00;;;;;;;12.38;5.40;;;;;;;;;;5035582;28;20100;-60
2021/08/27 03:23:28;;;;;;;11.68;5.45;;;;;;;;;;5035009;28;20037;-60
2021/08/27 03:25:55;;;;;;;9.35;5.00;;;;;;;;;;5035846;28;20046;-60
2021/08/27 03:28:23;;;;;;;11.90;5.30;;;;;;;;;;5030190;28;20033;-60
2021/08/27 03:30:53;;;;;;;10.30;5.35;;;;;;;;;;5035534;28;20025;-60
2021/08/27 03:33:19;;;;;;;9.90;4.70;;;;;;;;;;5022343;28;20527;-60
2021/08/27 03:35:48;;;;;;;9.98;4.95;;;;;;;;;;5034794;28;20033;-60
2021/08/27 03:38:14;;;;;;;10.07;4.60;;;;;;;;;;5033576;28;20109;-60
2021/08/27 03:40:41;;;;;;;10.38;5.05;;;;;;;;;;5035873;28;20029;-60
2021/08/27 03:43:07;;;;;;;14.77;5.10;;;;;;;;;;5035119;28;20021;-60
2021/08/27 03:45:34;;;;;;;9.20;5.07;;;;;;;;;;5035462;28;20030;-60
2021/08/27 03:48:00;;;;;;;11.07;6.03;;;;;;;;;;5021469;28;20030;-60
2021/08/27 03:50:26;;;;;;;9.38;5.38;;;;;;;;;;5032869;28;20028;-60
2021/08/27 03:52:53;;;;;;;11.07;4.70;;;;;;;;;;5036631;28;20037;-60
2021/08/27 03:55:19;;;;;;;8.50;4.47;;;;;;;;;;5035026;28;20513;-60
2021/08/27 03:57:47;;;;;;;13.27;5.50;;;;;;;;;;5029607;28;20057;-60
2021/08/27 04:00:13;;;;;;;10.02;4.95;;;;;;;;;;5036448;28;20095;-60
2021/08/27 04:02:39;;;;;;;9.55;5.15;;;;;;;;;;5034982;28;20025;-60
2021/08/27 04:05:19;;;;;;;10.30;5.38;;;;;;;;;;5035013;28;20044;-60
2021/08/27 04:07:45;;;;;;;11.10;4.55;;;;;;;;;;5033272;28;20033;-60
2021/08/27 04:10:13;;;;;;;11.52;5.10;;;;;;;;;;5041630;28;20465;-60
2021/08/27 04:12:40;;;;;;;10.25;5.20;;;;;;;;;;5036715;28;20025;-60
2021/08/27 04:15:07;;;;;;;10.57;5.00;;;;;;;;;;5033729;28;20049;-60
2021/08/27 04:17:33;;;;;;;10.20;4.60;;;;;;;;;;5023152;28;20030;-60
2021/08/27 04:19:59;;;;;;;9.95;4.90;;;;;;;;;;5034168;28;20389;-60
2021/08/27 04:22:25;;;;;;;9.07;4.47;;;;;;;;;;5035958;28;20056;-61
2021/08/27 04:24:51;;;;;;;9.18;4.75;;;;;;;;;;5035476;28;20175;-61
2021/08/27 04:27:17;;;;;;;9.32;5.07;;;;;;;;;;5032975;28;20388;-60
2021/08/27 04:29:43;;;;;;;9.90;4.80;;;;;;;;;;5031912;28;20037;-61
2021/08/27 04:32:10;;;;;;;8.88;4.50;;;;;;;;;;5033469;28;20112;-60
2021/08/27 04:34:36;;;;;;;8.90;4.55;;;;;;;;;;5034709;28;20045;-60
2021/08/27 04:37:02;;;;;;;10.02;4.80;;;;;;;;;;5032218;28;20033;-60
2021/08/27 04:39:28;;;;;;;13.43;5.05;;;;;;;;;;5046399;28;20037;-60
2021/08/27 04:41:54;;;;;;;10.82;5.40;;;;;;;;;;5033709;28;20013;-61
2021/08/27 04:44:20;;;;;;;9.77;5.25;;;;;;;;;;5034778;28;20045;-60
2021/08/27 04:46:46;;;;;;;10.60;5.20;;;;;;;;;;5027712;28;20499;-60
2021/08/27 04:49:12;;;;;;;8.88;4.82;;;;;;;;;;5027971;28;20029;-61
2021/08/27 04:51:38;;;;;;;11.07;4.82;;;;;;;;;;5035850;28;20429;-60
2021/08/27 04:54:04;;;;;;;10.98;5.35;;;;;;;;;;5032890;28;20033;-61
2021/08/27 04:56:30;;;;;;;10.48;4.97;;;;;;;;;;5029263;28;20053;-60
2021/08/27 04:58:56;;;;;;;9.35;4.75;;;;;;;;;;5039664;28;20030;-60
2021/08/27 05:01:22;;;;;;;10.27;4.95;;;;;;;;;;5026377;28;20079;-61
2021/08/27 05:03:48;;;;;;;9.57;4.88;;;;;;;;;;5034267;28;20473;-60
2021/08/27 05:06:14;;;;;;;11.05;4.82;;;;;;;;;;5032413;28;20099;-60
2021/08/27 05:08:40;;;;;;;10.75;5.30;;;;;;;;;;5033269;28;20026;-60
2021/08/27 05:11:06;;;;;;;10.13;4.97;;;;;;;;;;5035214;28;20025;-60
2021/08/27 05:13:32;;;;;;;12.02;5.75;;;;;;;;;;5035137;28;20124;-60
2021/08/27 05:15:58;;;;;;;9.00;4.80;;;;;;;;;;5035047;28;20024;-61
2021/08/27 05:18:24;;;;;;;9.80;4.70;;;;;;;;;;5020017;28;20116;-60
2021/08/27 05:20:50;;;;;;;11.65;5.18;;;;;;;;;;5033189;28;20075;-60
2021/08/27 05:23:16;;;;;;;11.77;4.97;;;;;;;;;;5034753;28;20029;-60
2021/08/27 05:25:42;;;;;;;10.27;5.32;;;;;;;;;;5034609;28;20501;-60
2021/08/27 05:28:08;;;;;;;11.90;4.82;;;;;;;;;;5027622;28;20108;-60
2021/08/27 05:30:34;;;;;;;9.45;5.00;;;;;;;;;;5035184;28;20484;-60
2021/08/27 05:33:00;;;;;;;8.93;4.78;;;;;;;;;;5033143;28;20108;-60
2021/08/27 05:35:26;;;;;;;10.88;4.88;;;;;;;;;;5032353;28;20129;-60
2021/08/27 05:37:52;;;;;;;8.20;5.00;;;;;;;;;;5031057;28;20049;-60
2021/08/27 05:40:18;;;;;;;10.43;5.28;;;;;;;;;;5033326;28;20439;-60
2021/08/27 05:42:44;;;;;;;11.50;5.43;;;;;;;;;;5033437;28;20037;-60
2021/08/27 05:45:10;;;;;;;9.00;4.72;;;;;;;;;;5033158;28;20037;-60
2021/08/27 05:47:37;;;;;;;10.07;4.95;;;;;;;;;;5031870;28;20029;-60
2021/08/27 05:50:03;;;;;;;10.27;5.20;;;;;;;;;;5033025;28;20057;-60
2021/08/27 05:52:29;;;;;;;13.65;4.47;;;;;;;;;;5032405;28;20465;-59
2021/08/27 05:54:55;;;;;;;8.73;5.00;;;;;;;;;;5032842;28;20033;-61
2021/08/27 05:57:21;;;;;;;10.43;5.10;;;;;;;;;;5031162;28;20033;-60
2021/08/27 05:59:47;;;;;;;8.73;4.57;;;;;;;;;;5031287;28;20029;-61
2021/08/27 06:02:13;;;;;;;12.00;4.65;;;;;;;;;;5032029;28;20132;-60
2021/08/27 06:04:39;;;;;;;9.38;4.57;;;;;;;;;;5032554;28;20433;-60
2021/08/27 06:07:05;;;;;;;8.68;4.30;;;;;;;;;;5030283;28;20045;-60
2021/08/27 06:09:31;;;;;;;11.63;4.72;;;;;;;;;;5032826;28;20029;-59
2021/08/27 06:11:57;;;;;;;10.02;4.65;;;;;;;;;;5031079;28;20025;-61
2021/08/27 06:14:23;;;;;;;9.40;4.55;;;;;;;;;;5031576;28;20718;-60
2021/08/27 06:16:49;;;;;;;10.20;4.50;;;;;;;;;;5031596;28;20026;-60
2021/08/27 06:19:15;;;;;;;8.23;3.80;;;;;;;;;;5031856;28;20031;-61
2021/08/27 06:21:41;;;;;;;9.95;4.50;;;;;;;;;;5032429;28;20014;-60
2021/08/27 06:24:07;;;;;;;9.98;4.28;;;;;;;;;;5032230;28;20030;-62
2021/08/27 06:26:33;;;;;;;8.43;4.13;;;;;;;;;;5030769;28;20413;-60
2021/08/27 06:29:03;;;;;;;8.98;4.05;;;;;;;;;;5032365;28;20034;-61
2021/08/27 06:31:29;;;;;;;10.52;5.00;;;;;;;;;;5032296;28;20561;-61
2021/08/27 06:33:55;;;;;;;7.45;4.28;;;;;;;;;;5032511;28;20485;-61
2021/08/27 06:36:21;;;;;;;9.23;4.50;;;;;;;;;;5031154;28;20086;-60
2021/08/27 06:38:47;;;;;;;10.73;4.30;;;;;;;;;;5030033;28;20377;-59
2021/08/27 06:41:13;;;;;;;10.07;4.53;;;;;;;;;;5032339;28;20247;-59
2021/08/27 06:43:41;;;;;;;8.80;4.20;;;;;;;;;;5031589;28;20040;-59
2021/08/27 06:46:09;;;;;;;12.00;4.25;;;;;;;;;;5031699;28;20029;-59
2021/08/27 06:48:35;;;;;;;9.18;4.40;;;;;;;;;;5031244;28;20037;-60
2021/08/27 06:51:01;;;;;;;9.02;4.57;;;;;;;;;;5030618;28;20071;-60
2021/08/27 06:53:27;;;;;;;8.10;4.15;;;;;;;;;;5030430;28;20371;-60
2021/08/27 06:55:53;;;;;;;10.90;4.65;;;;;;;;;;5033040;28;20021;-60
2021/08/27 06:58:20;;;;;;;8.65;4.60;;;;;;;;;;5030970;28;20760;-60
2021/08/27 07:00:46;;;;;;;8.98;4.15;;;;;;;;;;5032848;28;20025;-60
2021/08/27 07:03:12;;;;;;;9.85;4.60;;;;;;;;;;5032632;28;20029;-60
2021/08/27 07:05:38;;;;;;;8.20;4.38;;;;;;;;;;5025178;28;20657;-60
2021/08/27 07:08:04;;;;;;;11.43;4.85;;;;;;;;;;5027379;28;20084;-60
2021/08/27 07:10:31;;;;;;;8.45;4.15;;;;;;;;;;5029821;28;20025;-60
2021/08/27 07:12:57;;;;;;;9.32;4.53;;;;;;;;;;5030485;28;20033;-60
2021/08/27 07:15:23;;;;;;;9.40;4.40;;;;;;;;;;5026052;28;20021;-59
2021/08/27 07:17:49;;;;;;;9.70;4.22;;;;;;;;;;5011290;28;20026;-60
2021/08/27 07:20:15;;;;;;;8.52;4.40;;;;;;;;;;5030147;28;20032;-60
2021/08/27 07:22:42;;;;;;;7.50;4.07;;;;;;;;;;5032026;28;20064;-59
2021/08/27 07:25:08;;;;;;;13.13;5.43;;;;;;;;;;5030735;28;20465;-59
2021/08/27 07:27:34;;;;;;;9.95;4.70;;;;;;;;;;5031029;28;20025;-60
2021/08/27 07:30:00;;;;;;;9.07;4.72;;;;;;;;;;5016184;28;20087;-60
2021/08/27 07:32:26;;;;;;;8.98;4.70;;;;;;;;;;5032553;28;20025;-59
2021/08/27 07:34:52;;;;;;;9.25;4.75;;;;;;;;;;5032778;28;20045;-60
2021/08/27 07:37:18;;;;;;;11.35;4.57;;;;;;;;;;5032213;28;20021;-60
2021/08/27 07:39:44;;;;;;;11.10;4.30;;;;;;;;;;5032434;28;20064;-60
2021/08/27 07:42:11;;;;;;;9.05;5.05;;;;;;;;;;5029821;28;20460;-60
2021/08/27 07:44:37;;;;;;;9.70;4.68;;;;;;;;;;5031348;28;20020;-60
2021/08/27 07:47:04;;;;;;;8.52;4.30;;;;;;;;;;5024616;28;20103;-60
2021/08/27 07:49:30;;;;;;;9.52;4.78;;;;;;;;;;5029161;28;20091;-60
2021/08/27 07:51:57;;;;;;;9.30;4.32;;;;;;;;;;5035982;28;20037;-60
2021/08/27 07:54:23;;;;;;;9.13;4.78;;;;;;;;;;5036538;28;20033;-60
2021/08/27 07:56:49;;;;;;;10.30;4.80;;;;;;;;;;5035009;28;20036;-60
2021/08/27 07:59:15;;;;;;;9.30;4.45;;;;;;;;;;5034968;28;20029;-60
2021/08/27 08:01:41;;;;;;;9.48;4.60;;;;;;;;;;5035391;28;20025;-61
2021/08/27 08:04:07;;;;;;;9.25;4.47;;;;;;;;;;5032729;28;20450;-61
2021/08/27 08:06:35;;;;;;;7.93;4.05;;;;;;;;;;5036495;28;20034;-62
2021/08/27 08:09:01;;;;;;;10.82;4.65;;;;;;;;;;5034329;28;20022;-61
2021/08/27 08:11:27;;;;;;;10.57;5.00;;;;;;;;;;5032468;28;20091;-62
2021/08/27 08:13:53;;;;;;;7.82;4.30;;;;;;;;;;5035946;28;20039;-61
2021/08/27 08:16:19;;;;;;;8.02;4.40;;;;;;;;;;5018022;28;20420;-62
2021/08/27 08:18:45;;;;;;;8.18;4.18;;;;;;;;;;5024665;28;20029;-62
2021/08/27 08:21:12;;;;;;;9.25;4.30;;;;;;;;;;5035329;28;20377;-61
2021/08/27 08:23:38;;;;;;;8.38;4.70;;;;;;;;;;5034052;28;20542;-62
2021/08/27 08:26:05;;;;;;;6.82;4.45;;;;;;;;;;5041008;28;20515;-62
2021/08/27 08:28:31;;;;;;;11.68;4.65;;;;;;;;;;5034360;28;20032;-62
2021/08/27 08:30:57;;;;;;;7.63;4.57;;;;;;;;;;5026346;28;20505;-62
2021/08/27 08:33:23;;;;;;;8.35;4.88;;;;;;;;;;5035857;28;20029;-62
2021/08/27 08:35:49;;;;;;;8.18;4.40;;;;;;;;;;5037559;28;20017;-62
2021/08/27 08:38:17;;;;;;;11.77;4.10;;;;;;;;;;5032328;28;20029;-62
2021/08/27 08:40:44;;;;;;;9.10;4.53;;;;;;;;;;5029565;28;20032;-62
2021/08/27 08:43:10;;;;;;;8.53;4.67;;;;;;;;;;5029148;28;20071;-62
2021/08/27 08:45:40;;;;;;;9.10;4.93;;;;;;;;;;5035481;28;20017;-62
2021/08/27 08:48:07;;;;;;;8.90;4.50;;;;;;;;;;5020441;28;20267;-61
2021/08/27 08:50:33;;;;;;;9.77;4.60;;;;;;;;;;5034777;28;20025;-61
2021/08/27 08:53:00;;;;;;;9.23;4.63;;;;;;;;;;5019781;28;20080;-61
2021/08/27 08:55:27;;;;;;;8.73;4.53;;;;;;;;;;5036029;28;20279;-63
2021/08/27 08:57:53;;;;;;;8.75;4.25;;;;;;;;;;5034996;28;20040;-63
2021/08/27 09:00:19;;;;;;;9.05;4.57;;;;;;;;;;5032614;28;20107;-64
2021/08/27 09:02:45;;;;;;;8.25;4.50;;;;;;;;;;5033950;28;20026;-64
2021/08/27 09:05:11;;;;;;;8.40;4.93;;;;;;;;;;5033062;28;20104;-63
2021/08/27 09:07:37;;;;;;;8.63;4.57;;;;;;;;;;5025815;28;20448;-62
2021/08/27 09:10:03;;;;;;;9.82;4.97;;;;;;;;;;5035284;28;20056;-62
2021/08/27 09:12:30;;;;;;;9.93;4.53;;;;;;;;;;5035510;28;20029;-62
2021/08/27 09:14:57;;;;;;;9.73;5.03;;;;;;;;;;5032881;28;20056;-62
2021/08/27 09:17:38;;;;;;;10.23;4.90;;;;;;;;;;5021840;28;20033;-62
2021/08/27 09:20:05;;;;;;;9.30;4.30;;;;;;;;;;5033153;28;20022;-62
2021/08/27 09:22:50;;;;;;;8.20;4.47;;;;;;;;;;5033784;28;20021;-61
2021/08/27 09:25:17;;;;;;;16.35;5.28;;;;;;;;;;5034859;28;20064;-62
2021/08/27 09:28:02;;;;;;;10.88;4.30;;;;;;;;;;5028601;28;20033;-61
2021/08/27 09:30:29;;;;;;;9.70;4.53;;;;;;;;;;5020951;28;20029;-61
2021/08/27 09:32:55;;;;;;;13.05;4.90;;;;;;;;;;5033187;28;20033;-61
2021/08/27 09:35:23;;;;;;;10.52;4.68;;;;;;;;;;5035298;28;20449;-61
2021/08/27 09:37:49;;;;;;;;;;;;;;;;;;5033426;28;20038;-61
2021/08/27 09:40:17;;;;;;;10.27;4.75;;;;;;;;;;5034858;28;20351;-61
2021/08/27 09:42:44;;;;;;;10.20;4.95;;;;;;;;;;5033497;28;20029;-61
2021/08/27 09:45:11;;;;;;;9.50;4.47;;;;;;;;;;5034102;28;20041;-61
2021/08/27 09:47:37;;;;;;;11.32;4.38;;;;;;;;;;5020214;28;20433;-61
2021/08/27 09:50:19;;;;;;;11.10;4.72;;;;;;;;;;5033137;28;20095;-74
2021/08/27 09:52:52;;;;;;;8.52;4.43;;;;;;;;;;5034602;28;20116;-73
2021/08/27 09:55:18;;;;;;;11.23;4.80;;;;;;;;;;5032935;28;20444;-74
2021/08/27 09:57:45;;;;;;;10.88;5.00;;;;;;;;;;5034526;28;20493;-74
2021/08/27 10:00:17;;;;;;;9.70;4.78;;;;;;;;;;5033278;28;20071;-75
2021/08/27 10:02:43;;;;;;;10.40;4.32;;;;;;;;;;5032725;28;20025;-76
2021/08/27 10:05:11;;;;;;;9.85;5.05;;;;;;;;;;5032465;28;20095;-76
2021/08/27 10:07:38;;;;;;;11.30;5.15;;;;;;;;;;5030615;28;20033;-71
2021/08/27 10:10:05;;;;;;;9.85;4.97;;;;;;;;;;5032458;28;20378;-75
2021/08/27 10:12:32;;;;;;;8.25;3.97;;;;;;;;;;5033221;28;20089;-74
2021/08/27 10:14:59;;;;;;;9.63;4.82;;;;;;;;;;5031290;28;20057;-73
2021/08/27 10:17:26;;;;;;;10.40;4.70;;;;;;;;;;5026277;28;20034;-73
2021/08/27 10:19:52;;;;;;;10.68;5.07;;;;;;;;;;5013574;28;20484;-74
2021/08/27 10:22:18;;;;;;;10.15;5.00;;;;;;;;;;5032856;28;20025;-73
2021/08/27 10:24:46;;;;;;;8.70;4.47;;;;;;;;;;5032742;28;20021;-74
2021/08/27 10:27:14;;;;;;;10.65;4.82;;;;;;;;;;5032519;28;20041;-73
2021/08/27 10:29:49;;;;;;;10.38;5.05;;;;;;;;;;5019778;28;20032;-74
2021/08/27 10:32:36;;;;;;;10.25;5.35;;;;;;;;;;5032653;28;20413;-73
2021/08/27 10:35:02;;;;;;;;;;;;;;;;;;5031248;28;20049;-74
2021/08/27 10:37:41;;;;;;;9.07;5.28;;;;;;;;;;5030691;28;19909;-75
2021/08/27 10:40:27;;;;;;;10.48;5.57;;;;;;;;;;5020991;28;20029;-75
2021/08/27 10:42:53;;;;;;;10.48;5.43;;;;;;;;;;5027733;28;20087;-72
2021/08/27 10:45:34;;;;;;;9.57;5.15;;;;;;;;;;5036590;28;20021;-74
2021/08/27 10:48:09;;;;;;;9.70;5.55;;;;;;;;;;5028238;28;20033;-73
2021/08/27 10:50:36;;;;;;;9.73;5.30;;;;;;;;;;5031759;28;20043;-73
2021/08/27 10:53:21;;;;;;;10.85;4.90;;;;;;;;;;5030698;28;20370;-73
2021/08/27 10:55:47;;;;;;;12.02;5.28;;;;;;;;;;5030826;28;20033;-73
2021/08/27 10:58:14;;;;;;;13.52;5.63;;;;;;;;;;5028141;28;20481;-73
2021/08/27 11:00:41;;;;;;;11.80;5.10;;;;;;;;;;5031546;28;20025;-73
2021/08/27 11:03:08;;;;;;;9.77;4.88;;;;;;;;;;5030751;28;20038;-73
2021/08/27 11:05:35;;;;;;;12.10;4.93;;;;;;;;;;5030851;28;20353;-73
2021/08/27 11:08:08;;;;;;;9.55;5.10;;;;;;;;;;5029029;28;20043;-73
2021/08/27 11:10:39;;;;;;;8.85;5.07;;;;;;;;;;5030438;28;20029;-73
2021/08/27 11:13:10;;;;;;;11.70;4.80;;;;;;;;;;5030825;28;20030;-73
2021/08/27 11:15:36;;;;;;;9.68;4.90;;;;;;;;;;5031039;28;20038;-75
2021/08/27 11:18:18;;;;;;;9.23;4.30;;;;;;;;;;5026259;28;20021;-73
2021/08/27 11:20:44;;;;;;;9.30;5.10;;;;;;;;;;5031985;28;20091;-74
2021/08/27 11:23:11;;;;;;;11.70;5.17;;;;;;;;;;5030189;28;20021;-73
2021/08/27 11:26:00;;;;;;;9.70;5.25;;;;;;;;;;5035565;28;20042;-70
2021/08/27 11:28:27;;;;;;;9.40;5.10;;;;;;;;;;5030324;28;20088;-68
2021/08/27 11:31:10;;;;;;;10.07;4.93;;;;;;;;;;5035813;28;20413;-69
2021/08/27 11:33:43;;;;;;;12.07;5.20;;;;;;;;;;5036158;28;20056;-68
2021/08/27 11:36:09;;;;;;;9.80;5.10;;;;;;;;;;5035460;28;20033;-68
2021/08/27 11:38:35;;;;;;;10.73;5.03;;;;;;;;;;5029927;28;20071;-65
2021/08/27 11:41:02;;;;;;;8.82;4.88;;;;;;;;;;5036377;28;20068;-68
2021/08/27 11:43:35;;;;;;;10.15;4.75;;;;;;;;;;5035225;28;20029;-68
2021/08/27 11:46:01;;;;;;;8.65;5.05;;;;;;;;;;5033796;28;20030;-69
2021/08/27 11:48:29;;;;;;;12.88;5.38;;;;;;;;;;5026729;28;20020;-69
2021/08/27 11:50:57;;;;;;;9.15;5.03;;;;;;;;;;5033573;28;20361;-69
2021/08/27 11:53:27;;;;;;;9.43;5.03;;;;;;;;;;5032812;28;20102;-69
2021/08/27 11:55:53;;;;;;;10.48;5.40;;;;;;;;;;5035245;28;20026;-69
2021/08/27 11:58:20;;;;;;;9.32;5.03;;;;;;;;;;5027570;28;20037;-69
2021/08/27 12:00:48;;;;;;;10.18;5.07;;;;;;;;;;5044182;28;20025;-69
2021/08/27 12:03:15;;;;;;;9.63;4.95;;;;;;;;;;5033929;28;20046;-69
2021/08/27 12:05:41;;;;;;;9.23;4.80;;;;;;;;;;5033636;28;20022;-69
2021/08/27 12:08:11;;;;;;;10.02;5.00;;;;;;;;;;5030021;28;20469;-69
2021/08/27 12:10:38;;;;;;;9.85;5.30;;;;;;;;;;5036565;28;20128;-69
2021/08/27 12:13:05;;;;;;;12.05;4.95;;;;;;;;;;5035918;28;20033;-69
2021/08/27 12:15:40;;;;;;;9.38;5.15;;;;;;;;;;5035618;28;20040;-69
2021/08/27 12:18:07;;;;;;;11.52;5.22;;;;;;;;;;5020629;28;20038;-69
2021/08/27 12:20:34;;;;;;;8.93;4.70;;;;;;;;;;5035562;28;20033;-69
2021/08/27 12:23:05;;;;;;;11.82;5.68;;;;;;;;;;5035764;28;20469;-69
2021/08/27 12:25:38;;;;;;;8.80;4.90;;;;;;;;;;5035880;28;20044;-69
2021/08/27 12:28:04;;;;;;;9.75;5.22;;;;;;;;;;5029988;28;20033;-71
2021/08/27 12:30:30;;;;;;;11.38;5.05;;;;;;;;;;5034417;28;20072;-69
2021/08/27 12:32:57;;;;;;;17.20;5.15;;;;;;;;;;5032279;28;20025;-69
2021/08/27 12:35:34;;;;;;;9.57;5.03;;;;;;;;;;5034814;28;20171;-69
2021/08/27 12:38:01;;;;;;;10.60;5.57;;;;;;;;;;5032013;28;20098;-69
2021/08/27 12:40:28;;;;;;;11.07;5.55;;;;;;;;;;5035862;28;20033;-69
2021/08/27 12:43:03;;;;;;;14.18;5.75;;;;;;;;;;5034532;28;20048;-69
2021/08/27 12:45:41;;;;;;;13.15;5.10;;;;;;;;;;5035812;28;20037;-69
2021/08/27 12:48:08;;;;;;;11.00;5.18;;;;;;;;;;5019851;28;20040;-71
2021/08/27 12:50:47;;;;;;;9.90;5.38;;;;;;;;;;5034448;28;20030;-69
2021/08/27 12:53:13;;;;;;;12.65;5.65;;;;;;;;;;5034383;28;20463;-69
2021/08/27 12:55:39;;;;;;;12.68;5.20;;;;;;;;;;5035548;28;20021;-69
2021/08/27 12:58:07;;;;;;;11.80;5.82;;;;;;;;;;5027874;28;20068;-69
2021/08/27 13:00:32;;;;;;;10.93;5.95;;;;;;;;;;5035155;28;20021;-69
2021/08/27 13:03:09;;;;;;;14.55;5.18;;;;;;;;;;5031890;28;20397;-69
2021/08/27 13:05:37;;;;;;;13.30;5.53;;;;;;;;;;5031797;28;20522;-69
2021/08/27 13:08:10;;;;;;;10.73;5.22;;;;;;;;;;5031286;28;20493;-69
2021/08/27 13:10:36;;;;;;;10.05;5.47;;;;;;;;;;5033934;28;20083;-69
2021/08/27 13:13:02;;;;;;;10.88;5.30;;;;;;;;;;5034830;28;20225;-69
2021/08/27 13:15:28;;;;;;;11.27;5.80;;;;;;;;;;5033441;28;20439;-67
2021/08/27 13:18:05;;;;;;;10.13;5.78;;;;;;;;;;5019304;28;20022;-69
2021/08/27 13:20:33;;;;;;;15.63;6.00;;;;;;;;;;5033891;28;20435;-71
2021/08/27 13:23:18;;;;;;;11.07;5.53;;;;;;;;;;5033334;28;20484;-70
2021/08/27 13:25:54;;;;;;;12.18;5.85;;;;;;;;;;5032924;28;20106;-70
2021/08/27 13:28:20;;;;;;;10.05;5.78;;;;;;;;;;5027120;28;20037;-70
2021/08/27 13:30:47;;;;;;;12.32;5.95;;;;;;;;;;5033161;28;20033;-70
2021/08/27 13:33:13;;;;;;;9.43;5.95;;;;;;;;;;5033406;28;20024;-70
2021/08/27 13:35:41;;;;;;;13.82;6.03;;;;;;;;;;5032750;28;20025;-69
2021/08/27 13:38:07;;;;;;;10.80;5.85;;;;;;;;;;5030768;28;20025;-69
2021/08/27 13:40:34;;;;;;;12.50;5.70;;;;;;;;;;5033689;28;20037;-69
2021/08/27 13:43:00;;;;;;;15.18;5.63;;;;;;;;;;5034517;28;20018;-69
2021/08/27 13:45:26;;;;;;;12.90;5.63;;;;;;;;;;5033786;28;20492;-68
2021/08/27 13:47:52;;;;;;;10.27;6.03;;;;;;;;;;5017819;28;20044;-69
2021/08/27 13:50:18;;;;;;;13.45;6.13;;;;;;;;;;5033107;28;20473;-69
2021/08/27 13:52:45;;;;;;;13.07;6.10;;;;;;;;;;5033014;28;20017;-69
2021/08/27 13:55:12;;;;;;;10.35;5.72;;;;;;;;;;5030905;28;20697;-69
2021/08/27 13:57:38;;;;;;;14.43;6.30;;;;;;;;;;5032668;28;20091;-69
2021/08/27 14:00:05;;;;;;;11.30;6.05;;;;;;;;;;5029697;28;20029;-68
2021/08/27 14:02:31;;;;;;;12.00;6.13;;;;;;;;;;5032554;28;20049;-70
2021/08/27 14:04:57;;;;;;;11.23;6.43;;;;;;;;;;5033422;28;20500;-70
2021/08/27 14:07:23;;;;;;;14.25;6.25;;;;;;;;;;5030162;28;20029;-70
2021/08/27 14:09:49;;;;;;;16.33;5.65;;;;;;;;;;5034118;28;20047;-70
2021/08/27 14:12:15;;;;;;;11.32;6.00;;;;;;;;;;5032420;28;20037;-71
2021/08/27 14:14:41;;;;;;;11.98;6.15;;;;;;;;;;5032117;28;20496;-70
2021/08/27 14:17:07;;;;;;;15.57;6.15;;;;;;;;;;5026659;28;20030;-71
2021/08/27 14:19:33;;;;;;;16.17;6.35;;;;;;;;;;5028771;28;20025;-68
2021/08/27 14:21:59;;;;;;;16.55;5.95;;;;;;;;;;5039339;28;20369;-68
2021/08/27 14:24:25;;;;;;;13.57;6.13;;;;;;;;;;5033298;28;20453;-70
2021/08/27 14:26:51;;;;;;;13.60;6.18;;;;;;;;;;5025520;28;20052;-69
2021/08/27 14:29:17;;;;;;;12.80;5.90;;;;;;;;;;5032689;28;20081;-69
2021/08/27 14:31:44;;;;;;;14.63;5.85;;;;;;;;;;5034076;28;20040;-69
2021/08/27 14:34:10;;;;;;;11.48;5.80;;;;;;;;;;5032437;28;20054;-69
2021/08/27 14:36:36;;;;;;;14.35;6.60;;;;;;;;;;5030159;28;20026;-69
2021/08/27 14:39:03;;;;;;;13.52;6.40;;;;;;;;;;5031230;28;20112;-69